MyMeetScores TOP 100 TOP TEAMS UPCOMING MEETS COMPLETED MEETS LATEST MEETS ADD SCORES SUPPORT SHOP
Pretty in PinkShop@
MyMeetScores
 
Mia Izguerra, Gym Kinetics Gymnastics - MyMeetScores.com
Mia Izguerra
Gym Kinetics Gymnastics
Personal Bests
Level Vault Bars Beam Floor AA
3 9.850 9.725 9.750 9.425 38.300
4 9.075 9.450 9.575 9.400 37.025
5 9.450 9.275 9.250 9.125 36.675
6 9.100 9.350 9.325 9.300 36.900
7 9.500 9.500 9.450 9.600 37.075
Meet Scores
Date Meet Team Session Level Division Vault Bars Beam Floor AA
2023-01-20 2023 Bravo Classic Gym Kinetics Gymnastics 10A 7 Sr 9.075 2 8.550 8T 9.200 5 9.175 11T 36.000 5
2023-01-13 St Jude Benefit Meet Gym Kinetics Gymnastics 7B 7 Sr B 9.500 2 8.350 9T 9.275 3T 9.175 7 36.300 3
2022-12-16 Aspire Classic 2022 Gym Kinetics Gymnastics B04 7 Older 8.850 8 8.475 10 9.050 7T 0.000 20T 26.375 19
2022-04-01 Level 6-7-8 State 2022 Gym Kinetics Gymnastics 08 7 Sr C 9.500 2T 9.275 5 8.700 21 9.600 7 37.075 9
2022-03-10 Lucky Invite Gym Kinetics Gymnastics A02 7 Older 9.500 2* 9.000 9T 9.100 9T 9.225 16T 36.825 5T
2022-01-21 Circle of Stars Gym Kinetics Gymnastics A10 7 Sr B 8.925 3 9.400 3 18.325 5T
2022-01-14 2022 Bravo Classic Gym Kinetics Gymnastics 11B 7 Sr 9.100 6T 9.175 6 9.450 6T 9.225 7T 36.950 4
2021-12-17 2021 Women's Hawaiian Pineapple Invitational Gym Kinetics Gymnastics 3A 7 Kauai 8.875 2T 9.100 4T 9.250 3 9.250 10 36.475 2
2021-04-09 Illinois Level 7 8 State Championships Gym Kinetics Gymnastics 3 7 Sr B 9.200 6 9.500 4 8.625 27T 9.400 13 36.725 8
2021-03-05 NGC Flip'r S.O.U.L. Invitational Gym Kinetics Gymnastics 08 7 SR 9.250 3T 9.100 4 9.300 4 9.000 10 36.650 4
2021-02-26 Kinetic Classic 2021 Gym Kinetics Gymnastics 13 7 Older 9.500 4T 8.650 16 9.000 13 9.075 19 36.225 14
2021-02-12 Harley Meet Women - Midwest Twisters Gym Kinetics Gymnastics O10 7 Sr A 9.200 1T 9.150 5 9.150 2 8.875 3 36.375 3
2021-01-21 King Arthur Invitational Gym Kinetics Gymnastics 1 7 SR 9.150 3T 9.200 2 8.875 5* 8.800 10 36.025 5T
2021-01-14 2021 Bravo Classic Gym Kinetics Gymnastics 16 7 Sr 9.175 8 9.050 9 9.175 9 9.275 10T 36.675 8
2020-12-18 Aspire Classic Gym Kinetics Gymnastics 2 7 Older 9.300 2T 9.050 4 9.300 3T 9.300 6 36.950 4
2020-02-21 Kinetic Classic Gym Kinetics Gymnastics 01 6 Middle 9.100 15 9.150 13T 8.600 46 9.000 46T 35.850 27
2020-01-17 2020 Bravo Classic Gym Kinetics Gymnastics 11A 6 Jr 9.000 10T 9.350 4 9.250 10 9.300 7T 36.900 4
2020-01-10 Leenda's Island Adventure Gym Kinetics Gymnastics GG7 6 12 Year Ol 8.650 2 9.250 1 9.275 1 9.175 1 36.350 1
2019-12-20 Aspire Classic - 2019 Gym Kinetics Gymnastics 2A 6 Younger 8.800 4 8.850 2 9.325 4T 9.250 2T 36.225 3
2019-12-07 Home for the Holidays 2019 Gym Kinetics Gymnastics 6 6 Middle 8.800 4T 8.900 3T 8.675 8 8.950 8T 35.325 9
2019-03-22 Illinois Gymnastics State Championships Gym Kinetics Gymnastics 3 5 SR A 9.400 10T 9.275 7 9.125 13 8.825 28 36.625 12
2019-03-01 NGCD Academy's 2019 Flip'r Invitational Gym Kinetics Gymnastics 11 5 Jr B 9.400 4 9.000 9 9.250 3 9.025 8T 36.675 6
2019-02-23 Kinetic Classic 2019 Gym Kinetics Gymnastics 1 5 Middle 8.700 4 8.475 8T 8.775 7 8.475 14 34.425 4
2019-02-08 Midwest Twisters Harley Meet Womens Gym Kinetics Gymnastics O11 5 11a 8.875 4 8.525 6 8.900 1 8.425 9 34.725 3
2019-01-18 2019 Bravo Classic Gym Kinetics Gymnastics 2A 5 Jr 8.850 7T 8.700 15 9.025 12 9.125 12T 35.700 14
2019-01-11 St Jude Benefit Meet Gym Kinetics Gymnastics 8A 5 Sr A 9.300 5 8.625 10 8.475 14 8.425 18 34.825 10
2018-12-14 2018 Aspire Classic Gym Kinetics Gymnastics 8A 5 Middle 9.450 3 8.925 8 8.525 20T 8.650 15T 35.550 12
2018-03-08 Level 4 & 5 State Gym Kinetics Gymnastics All 4 Jr A 9.075 6T 9.075 8 9.525 7 9.300 6 36.975 7
2018-02-23 Kinetic Classic Gym Kinetics Gymnastics 7 4 Middle 8.550 26T 9.225 14T 9.200 28T 9.225 30T 36.200 19
2018-02-03 Midwest Games Gym Kinetics Gymnastics 6 4 Jr C 8.850 2 9.450 2 9.500 2T 9.225 2T 37.025 1
2018-01-19 2018 Bravo Classic Gym Kinetics Gymnastics 10B 4 Jr 8.850 8 9.125 10 9.575 2 9.250 9T 36.800 5
2017-12-15 2017 Aspire Classic Gym Kinetics Gymnastics 7A 4 Middle 8.850 4 9.025 6 9.275 3 9.400 4 36.550 3T
2017-03-30 2017 Illinois Level 3 & 5 State Gym Kinetics Gymnastics All 3 Jr C 9.850 2 9.725 3 9.375 3 9.350 5T 38.300 1
2017-02-24 Kinetic Classic Gym Kinetics Gymnastics 4,5,6,7 3 All Ages 9.300 20T 9.400 9T 9.750 2 9.275 18T 37.725 5
2017-02-09 Hal's Harley-Davidson Invite Gym Kinetics Gymnastics S11 3 9 yrs. 9.400 4T 9.575 1 9.425 1T 9.275 7T 37.675 2
2017-01-13 St Jude Benefit Meet Gym Kinetics Gymnastics 7A 3 Jr C 9.175 8 9.700 1 8.850 6 9.350 4T 37.075 3
2016-12-16 2016 Aspire Classic Gym Kinetics Gymnastics 11 3 Older 9.325 11 9.350 3T 8.350 13 9.425 1 36.450 4